Time;durP1;ratioP1;P1;durP2;ratioP2;P2;SDS_P1;SDS_P2;PMS_P1;PMS_P2;Temp;Humidity;BMP_temperature;BMP_pressure;BME280_temperature;BME280_humidity;BME280_pressure;Samples;Min_cycle;Max_cycle;Signal;HPM_P1;HPM_P2
2023/09/11 00:01:35;;;;;;;9.07;5.00;;;21.50;98.10;;;;;;5012002;28;20209;-70
2023/09/11 00:04:02;;;;;;;5.40;4.00;;;22.10;95.00;;;;;;5012319;28;20565;-71
2023/09/11 00:06:30;;;;;;;9.60;4.43;;;22.20;97.10;;;;;;5012744;28;20246;-70
2023/09/11 00:09:00;;;;;;;7.07;4.47;;;21.70;95.30;;;;;;5012426;28;20174;-70
2023/09/11 00:11:28;;;;;;;5.77;4.63;;;22.30;93.90;;;;;;4994468;28;20635;-70
2023/09/11 00:13:56;;;;;;;6.20;4.20;;;22.70;91.00;;;;;;5012395;28;20232;-71
2023/09/11 00:23:08;;;;;;;6.23;3.83;;;23.60;81.90;;;;;;5010976;28;20562;-71
2023/09/11 00:25:36;;;;;;;4.70;3.83;;;23.80;75.40;;;;;;5011821;28;20211;-70
2023/09/11 00:28:04;;;;;;;4.23;3.80;;;23.80;71.40;;;;;;5012289;28;20268;-71
2023/09/11 00:30:32;;;;;;;4.13;2.77;;;23.90;68.00;;;;;;5011880;28;20647;-71
2023/09/11 00:33:00;;;;;;;4.63;3.10;;;23.60;64.80;;;;;;5011108;28;20256;-71
2023/09/11 00:35:27;;;;;;;4.83;3.50;;;23.30;68.80;;;;;;5011380;28;20186;-71
2023/09/11 00:37:55;;;;;;;5.73;3.20;;;23.20;70.30;;;;;;5011613;28;20190;-70
2023/09/11 00:40:23;;;;;;;8.70;3.70;;;23.20;66.10;;;;;;5012009;28;20194;-71
2023/09/11 00:42:50;;;;;;;6.60;3.07;;;23.50;66.80;;;;;;5011925;28;20288;-71
2023/09/11 00:45:18;;;;;;;7.83;3.00;;;23.30;65.20;;;;;;5011730;28;20256;-72
2023/09/11 00:47:47;;;;;;;8.93;2.93;;;23.40;58.30;;;;;;5012001;28;20236;-72
2023/09/11 00:50:17;;;;;;;5.17;2.80;;;23.50;61.40;;;;;;5012040;28;20675;-72
2023/09/11 00:52:46;;;;;;;7.00;2.50;;;23.50;59.00;;;;;;5011212;28;20251;-71
2023/09/11 00:55:14;;;;;;;4.37;2.37;;;23.40;59.80;;;;;;5011855;28;20178;-72
2023/09/11 00:57:43;;;;;;;4.13;2.40;;;23.60;50.40;;;;;;5011753;28;20182;-71
2023/09/11 01:00:12;;;;;;;3.00;2.33;;;23.70;50.00;;;;;;5011248;28;20671;-71
2023/09/11 01:02:40;;;;;;;5.23;2.43;;;23.70;48.40;;;;;;5011260;28;20276;-72
2023/09/11 01:05:08;;;;;;;3.27;2.63;;;24.30;48.00;;;;;;5011822;28;20209;-73
2023/09/11 01:07:36;;;;;;;4.03;2.40;;;24.90;45.90;;;;;;5011029;28;20188;-72
2023/09/11 01:10:07;;;;;;;3.50;2.63;;;25.20;41.90;;;;;;5011855;28;20184;-70
2023/09/11 01:12:37;;;;;;;2.67;2.30;;;24.20;45.30;;;;;;5010884;28;20178;-70
2023/09/11 01:15:07;;;;;;;3.83;2.40;;;23.10;38.80;;;;;;5011277;28;20182;-70
2023/09/11 01:18:23;;;;;;;4.63;2.50;;;22.90;44.80;;;;;;5011618;28;20219;-72
2023/09/11 01:21:07;;;;;;;3.97;2.07;;;23.50;41.50;;;;;;4951105;29;20362;-71
2023/09/11 01:24:02;;;;;;;4.53;1.90;;;23.80;37.00;;;;;;4931568;29;20196;-72
2023/09/11 01:26:48;;;;;;;4.57;2.17;;;24.10;36.30;;;;;;5000553;28;20656;-71
2023/09/11 01:29:25;;;;;;;3.73;1.50;;;25.10;34.90;;;;;;4991547;28;20620;-72
2023/09/11 01:31:57;;;;;;;2.83;1.90;;;25.90;28.20;;;;;;5007302;28;20192;-71
2023/09/11 01:34:24;;;;;;;2.37;1.43;;;25.80;26.20;;;;;;5010708;28;20186;-72
2023/09/11 01:36:52;;;;;;;2.93;1.30;;;25.40;23.50;;;;;;5012578;28;20193;-70
2023/09/11 01:39:20;;;;;;;2.00;1.80;;;25.20;23.20;;;;;;5015265;28;20193;-72
2023/09/11 01:41:49;;;;;;;1.77;1.40;;;25.20;22.40;;;;;;4997460;28;20205;-69
2023/09/11 01:44:26;;;;;;;2.47;1.40;;;25.40;22.70;;;;;;5014898;28;20193;-71
2023/09/11 01:46:56;;;;;;;2.60;1.27;;;25.60;23.70;;;;;;5015598;28;20681;-71
2023/09/11 01:49:25;;;;;;;1.97;1.13;;;25.70;21.60;;;;;;5017090;28;20174;-72
2023/09/11 01:51:54;;;;;;;3.97;1.93;;;25.70;18.20;;;;;;5015624;28;20194;-72
2023/09/11 01:54:23;;;;;;;1.67;1.57;;;25.60;18.50;;;;;;4998783;28;20178;-71
2023/09/11 01:56:51;;;;;;;4.10;1.77;;;24.80;21.50;;;;;;5015265;28;20203;-71
2023/09/11 01:59:18;;;;;;;6.00;1.70;;;23.70;22.60;;;;;;5016271;28;20229;-71
2023/09/11 02:01:46;;;;;;;3.27;1.73;;;23.30;22.70;;;;;;5014881;28;20182;-71
2023/09/11 02:04:14;;;;;;;3.27;1.50;;;23.20;22.10;;;;;;5014547;28;20181;-72
2023/09/11 02:06:41;;;;;;;3.00;1.43;;;23.10;22.10;;;;;;5014369;28;20583;-71
2023/09/11 02:09:09;;;;;;;2.23;1.30;;;23.70;23.30;;;;;;5014660;28;20663;-71
2023/09/11 02:11:37;;;;;;;2.83;1.27;;;24.10;26.10;;;;;;5014559;28;20190;-71
2023/09/11 02:14:05;;;;;;;2.57;1.30;;;24.20;23.30;;;;;;5014383;28;20205;-71
2023/09/11 02:16:32;;;;;;;2.27;1.50;;;24.40;24.10;;;;;;5014979;28;20263;-72
2023/09/11 02:19:00;;;;;;;2.47;1.30;;;25.00;22.50;;;;;;5014678;28;20229;-72
2023/09/11 02:21:28;;;;;;;7.80;1.33;;;25.20;20.80;;;;;;5013706;28;20193;-70
2023/09/11 02:23:55;;;;;;;1.73;1.20;;;24.90;21.70;;;;;;5014457;28;20186;-70
2023/09/11 02:26:23;;;;;;;2.90;1.53;;;24.40;21.70;;;;;;5014351;28;20251;-71
2023/09/11 02:32:13;;;;;;;3.70;1.70;;;24.40;23.40;;;;;;5014925;28;20280;-71
2023/09/11 02:34:41;;;;;;;5.27;1.93;;;24.90;24.90;;;;;;4998255;28;20185;-71
2023/09/11 02:37:08;;;;;;;3.63;2.07;;;24.80;23.00;;;;;;4998169;28;20176;-73
2023/09/11 02:39:38;;;;;;;6.87;1.90;;;25.10;22.50;;;;;;5012401;28;20186;-70
2023/09/11 02:42:06;;;;;;;3.50;1.93;;;25.30;24.70;;;;;;5013920;28;20182;-69
2023/09/11 02:44:33;;;;;;;8.07;2.17;;;25.70;21.80;;;;;;5013684;28;20186;-70
2023/09/11 02:47:01;;;;;;;2.67;1.90;;;25.70;22.00;;;;;;4996953;28;20186;-70
2023/09/11 02:49:29;;;;;;;2.27;1.80;;;25.20;21.40;;;;;;5013387;28;20181;-70
2023/09/11 02:51:57;;;;;;;8.77;2.40;;;24.60;22.10;;;;;;5012786;28;20635;-70
2023/09/11 02:54:24;;;;;;;3.33;2.00;;;24.40;23.70;;;;;;5013965;28;20189;-70
2023/09/11 02:56:52;;;;;;;4.83;2.23;;;24.60;23.30;;;;;;5013912;28;20663;-70
2023/09/11 02:59:20;;;;;;;3.70;2.23;;;24.30;23.20;;;;;;5013526;28;20222;-71
2023/09/11 03:01:47;;;;;;;5.07;2.47;;;24.10;24.60;;;;;;4995975;28;20185;-71
2023/09/11 03:04:15;;;;;;;4.53;2.50;;;23.90;23.90;;;;;;5013266;28;20185;-71
2023/09/11 03:06:43;;;;;;;4.37;2.47;;;24.70;23.50;;;;;;5013376;28;20225;-71
2023/09/11 03:09:11;;;;;;;4.90;2.77;;;24.60;22.80;;;;;;5013331;28;20640;-72
2023/09/11 03:11:39;;;;;;;4.17;2.17;;;24.90;24.10;;;;;;5013606;28;20268;-73
2023/09/11 03:14:11;;;;;;;4.90;2.20;;;25.40;23.20;;;;;;5012901;28;20196;-71
2023/09/11 03:16:43;;;;;;;4.07;2.07;;;25.00;22.30;;;;;;5013558;28;20186;-71
2023/09/11 03:19:12;;;;;;;3.63;2.20;;;24.80;22.20;;;;;;5013604;28;20182;-71
2023/09/11 03:28:29;;;;;;;5.40;1.97;;;25.30;23.80;;;;;;4971432;28;20218;-69
2023/09/11 03:30:57;;;;;;;3.90;2.03;;;25.40;22.00;;;;;;4971477;28;20237;-70
2023/09/11 03:33:25;;;;;;;4.20;2.30;;;25.60;22.30;;;;;;4972109;28;20183;-71
2023/09/11 03:35:53;;;;;;;3.10;2.20;;;25.40;21.50;;;;;;4971965;28;20191;-71
2023/09/11 03:38:20;;;;;;;5.40;2.30;;;25.30;23.40;;;;;;4971158;28;20724;-71
2023/09/11 03:40:48;;;;;;;6.07;2.10;;;25.20;22.70;;;;;;4971966;28;20209;-70
2023/09/11 03:43:16;;;;;;;6.17;2.17;;;25.20;24.10;;;;;;4971828;28;20195;-71
2023/09/11 03:45:43;;;;;;;6.03;2.53;;;25.20;23.20;;;;;;4971085;28;20338;-71
2023/09/11 03:48:11;;;;;;;4.20;2.27;;;25.20;23.30;;;;;;4971728;28;20183;-71
2023/09/11 03:50:39;;;;;;;4.47;1.90;;;25.20;21.60;;;;;;4971659;28;20559;-70
2023/09/11 03:53:07;;;;;;;4.27;2.20;;;25.30;23.50;;;;;;4971204;28;20795;-72
2023/09/11 03:55:36;;;;;;;4.83;2.20;;;25.10;21.70;;;;;;4971909;28;20649;-70
2023/09/11 03:58:04;;;;;;;3.47;2.10;;;24.80;23.20;;;;;;4971536;28;20176;-71
2023/09/11 04:00:31;;;;;;;3.90;1.97;;;25.00;21.30;;;;;;4970281;28;20175;-70
2023/09/11 04:02:59;;;;;;;5.13;2.20;;;25.10;21.60;;;;;;5011703;28;20260;-71
2023/09/11 04:05:27;;;;;;;3.53;2.27;;;25.20;20.60;;;;;;4996179;28;20280;-72
2023/09/11 04:07:55;;;;;;;5.30;2.10;;;25.40;19.10;;;;;;5014148;28;20175;-71
2023/09/11 04:10:23;;;;;;;3.23;2.13;;;24.80;20.30;;;;;;5013768;28;20174;-71
2023/09/11 04:12:51;;;;;;;5.37;2.30;;;24.60;20.20;;;;;;5014182;28;20170;-71
2023/09/11 04:15:19;;;;;;;4.57;2.30;;;24.90;21.50;;;;;;5014486;28;20177;-70
2023/09/11 04:17:46;;;;;;;2.63;2.10;;;25.00;19.60;;;;;;5013191;28;20239;-71
2023/09/11 04:20:14;;;;;;;5.80;2.33;;;24.60;20.30;;;;;;4996455;28;20182;-72
2023/09/11 04:22:53;;;;;;;7.43;2.30;;;23.80;20.60;;;;;;5090665;27;20523;-71
2023/09/11 04:25:21;;;;;;;7.20;2.30;;;23.50;21.80;;;;;;5090540;28;20608;-71
2023/09/11 04:27:49;;;;;;;3.97;2.40;;;23.80;22.60;;;;;;5090158;28;20635;-69
2023/09/11 04:30:17;;;;;;;3.73;2.27;;;23.90;22.70;;;;;;5090575;28;20640;-70
2023/09/11 04:32:45;;;;;;;5.17;2.50;;;23.40;20.60;;;;;;5067704;28;20262;-71
2023/09/11 04:35:12;;;;;;;5.77;2.13;;;23.30;22.60;;;;;;5088315;28;20301;-70
2023/09/11 04:37:40;;;;;;;9.03;2.17;;;23.40;21.30;;;;;;5088383;28;20175;-71
2023/09/11 04:40:08;;;;;;;3.87;2.03;;;23.40;22.20;;;;;;5087881;28;20179;-70
2023/09/11 04:42:37;;;;;;;3.63;1.97;;;23.30;22.50;;;;;;5088062;28;20250;-71
2023/09/11 04:45:06;;;;;;;4.77;2.20;;;23.30;21.90;;;;;;5088304;28;20209;-70
2023/09/11 04:47:34;;;;;;;3.13;2.23;;;23.30;21.00;;;;;;5086112;28;20222;-70
2023/09/11 04:50:03;;;;;;;4.30;2.27;;;22.90;23.30;;;;;;5087787;28;20175;-70
2023/09/11 04:52:30;;;;;;;3.53;1.93;;;22.50;21.30;;;;;;5087826;28;20285;-70
2023/09/11 04:54:59;;;;;;;3.57;2.10;;;22.40;22.40;;;;;;5087486;28;20262;-69
2023/09/11 04:57:26;;;;;;;3.37;1.87;;;22.60;22.60;;;;;;5086620;28;20175;-69
2023/09/11 04:59:54;;;;;;;3.60;2.17;;;22.80;22.70;;;;;;5087547;28;20176;-70
2023/09/11 05:02:22;;;;;;;4.10;2.90;;;23.00;22.40;;;;;;5085534;28;20222;-71
2023/09/11 05:04:50;;;;;;;9.07;6.40;;;23.10;24.30;;;;;;5087615;28;20175;-68
2023/09/11 05:07:18;;;;;;;12.90;6.50;;;23.20;31.60;;;;;;5085679;28;20183;-69
2023/09/11 05:09:47;;;;;;;8.47;6.67;;;23.00;33.80;;;;;;5085940;28;20235;-70
2023/09/11 05:12:15;;;;;;;7.00;5.73;;;22.70;34.60;;;;;;5089216;28;20199;-69
2023/09/11 05:14:42;;;;;;;8.40;5.83;;;22.40;36.40;;;;;;5088135;28;20288;-70
2023/09/11 05:17:10;;;;;;;10.73;5.97;;;22.40;38.10;;;;;;5088467;28;20304;-70
2023/09/11 05:19:38;;;;;;;6.57;5.20;;;22.00;39.10;;;;;;5088313;28;20637;-69
2023/09/11 05:22:05;;;;;;;8.67;5.17;;;22.00;44.60;;;;;;5087788;28;20280;-70
2023/09/11 05:24:33;;;;;;;9.10;5.30;;;21.80;42.90;;;;;;5089297;28;20179;-70
2023/09/11 05:27:01;;;;;;;9.83;5.43;;;21.70;46.40;;;;;;5089195;28;20252;-69
2023/09/11 05:29:29;;;;;;;8.90;5.57;;;21.60;49.80;;;;;;5089145;28;20171;-69
2023/09/11 05:31:56;;;;;;;7.87;4.63;;;21.50;51.50;;;;;;5088858;28;20172;-70
2023/09/11 05:34:24;;;;;;;8.83;3.83;;;21.20;53.50;;;;;;5075271;28;20185;-70
2023/09/11 05:36:52;;;;;;;6.53;4.13;;;21.00;58.30;;;;;;5075654;28;20176;-70
2023/09/11 05:39:20;;;;;;;10.20;3.80;;;21.10;66.20;;;;;;5075550;28;20538;-69
2023/09/11 05:41:47;;;;;;;8.50;4.63;;;21.20;70.70;;;;;;5075511;28;20204;-68
2023/09/11 05:44:15;;;;;;;9.33;3.60;;;21.30;69.10;;;;;;5075588;28;20178;-69
2023/09/11 05:46:43;;;;;;;10.63;3.70;;;21.30;72.10;;;;;;5075575;28;20172;-68
2023/09/11 05:49:11;;;;;;;10.37;3.50;;;21.30;66.10;;;;;;5075539;28;20710;-68
2023/09/11 05:51:38;;;;;;;4.73;3.20;;;21.10;65.60;;;;;;5075468;28;20175;-68
2023/09/11 05:54:06;;;;;;;10.70;3.27;;;21.00;70.20;;;;;;5075551;28;20176;-68
2023/09/11 05:56:34;;;;;;;5.90;3.33;;;20.90;73.40;;;;;;5075317;28;20198;-68
2023/09/11 05:59:02;;;;;;;7.83;3.07;;;20.70;76.50;;;;;;5075571;28;20226;-69
2023/09/11 06:01:30;;;;;;;5.43;3.60;;;20.70;76.70;;;;;;5073896;28;20206;-71
2023/09/11 06:03:58;;;;;;;5.57;3.00;;;20.60;78.30;;;;;;5073916;28;20591;-70
2023/09/11 06:06:26;;;;;;;8.00;3.20;;;20.60;78.20;;;;;;5073938;28;20278;-70
2023/09/11 06:08:55;;;;;;;8.70;3.40;;;20.60;82.60;;;;;;5075142;28;20175;-72
2023/09/11 06:11:22;;;;;;;5.97;3.20;;;20.70;83.30;;;;;;5075164;28;20203;-70
2023/09/11 06:13:50;;;;;;;7.80;3.10;;;20.50;83.60;;;;;;5075000;28;20255;-71
2023/09/11 06:16:18;;;;;;;13.43;3.33;;;20.50;87.50;;;;;;5075103;28;20266;-71
2023/09/11 06:18:45;;;;;;;6.77;2.93;;;20.50;90.10;;;;;;5074961;28;20167;-69
2023/09/11 06:21:13;;;;;;;6.93;3.33;;;20.50;91.50;;;;;;5074533;28;20329;-69
2023/09/11 06:23:41;;;;;;;4.43;2.53;;;20.50;92.00;;;;;;5074915;28;20179;-71
2023/09/11 06:26:09;;;;;;;7.40;3.13;;;20.50;93.60;;;;;;5074829;28;20180;-72
2023/09/11 06:28:36;;;;;;;5.97;2.90;;;20.30;94.10;;;;;;5074563;28;20271;-70
2023/09/11 06:31:05;;;;;;;8.13;2.90;;;20.20;95.40;;;;;;5074361;28;20222;-69
2023/09/11 06:33:33;;;;;;;5.23;3.00;;;20.20;98.70;;;;;;5074609;28;20697;-70
2023/09/11 06:36:00;;;;;;;7.43;2.97;;;19.90;99.90;;;;;;5073161;28;20192;-70
2023/09/11 06:38:28;;;;;;;7.77;2.53;;;19.80;99.90;;;;;;5074639;28;20256;-70
2023/09/11 06:40:56;;;;;;;7.53;2.60;;;19.80;99.90;;;;;;5074416;28;20293;-70
2023/09/11 06:43:24;;;;;;;6.03;2.53;;;19.80;99.90;;;;;;5074251;28;20207;-71
2023/09/11 06:45:54;;;;;;;7.03;2.70;;;19.80;99.90;;;;;;5073260;28;20556;-71
2023/09/11 06:48:22;;;;;;;5.27;2.80;;;19.60;99.90;;;;;;5073145;28;20234;-69
2023/09/11 06:50:53;;;;;;;4.57;2.50;;;19.60;99.90;;;;;;5072831;28;20181;-70
2023/09/11 06:53:21;;;;;;;4.70;2.40;;;19.50;99.90;;;;;;5073709;28;20176;-70
2023/09/11 06:55:49;;;;;;;8.90;2.47;;;19.40;99.90;;;;;;5072852;28;20224;-71
2023/09/11 06:58:17;;;;;;;9.80;2.50;;;19.30;99.90;;;;;;5073933;28;20199;-71
2023/09/11 07:00:45;;;;;;;7.63;2.57;;;19.30;99.90;;;;;;5072688;28;20205;-70
2023/09/11 07:03:13;;;;;;;6.50;2.63;;;19.20;99.90;;;;;;5076273;28;20189;-70
2023/09/11 07:05:40;;;;;;;4.87;2.50;;;19.20;99.90;;;;;;5079030;28;20660;-69
2023/09/11 07:08:08;;;;;;;7.07;2.43;;;19.00;99.90;;;;;;5072489;28;20179;-69
2023/09/11 07:10:36;;;;;;;4.83;2.17;;;18.80;99.90;;;;;;5090236;28;20308;-69
2023/09/11 07:13:03;;;;;;;5.83;2.20;;;18.60;99.90;;;;;;5093079;28;20189;-69
2023/09/11 07:15:31;;;;;;;7.57;2.60;;;18.50;99.90;;;;;;5088520;28;20184;-69
2023/09/11 07:18:00;;;;;;;6.17;2.50;;;18.30;99.90;;;;;;5071865;28;20271;-69
2023/09/11 07:20:27;;;;;;;6.10;2.40;;;18.20;99.90;;;;;;5071933;28;20317;-69
2023/09/11 07:22:55;;;;;;;6.70;2.23;;;18.10;99.90;;;;;;5072772;28;20181;-70
2023/09/11 07:25:23;;;;;;;5.70;2.40;;;17.90;99.90;;;;;;5073273;28;20189;-69
2023/09/11 07:27:54;;;;;;;3.50;2.13;;;17.80;99.90;;;;;;5072731;28;20186;-69
2023/09/11 07:30:22;;;;;;;8.77;3.00;;;17.80;99.90;;;;;;5073099;28;20627;-69
2023/09/11 07:32:52;;;;;;;3.13;2.00;;;17.50;99.90;;;;;;5072864;28;20536;-69
2023/09/11 07:35:20;;;;;;;6.03;2.30;;;17.40;99.90;;;;;;5071593;28;20180;-68
2023/09/11 07:37:51;;;;;;;5.37;2.93;;;17.30;99.90;;;;;;5072605;28;20172;-68
2023/09/11 07:40:20;;;;;;;5.03;2.10;;;17.20;99.90;;;;;;5072653;28;20173;-69
2023/09/11 07:42:48;;;;;;;3.60;2.10;;;17.10;99.90;;;;;;5071442;28;20212;-69
2023/09/11 07:45:16;;;;;;;5.30;2.30;;;17.10;99.90;;;;;;5072896;28;20524;-70
2023/09/11 07:47:44;;;;;;;7.50;2.20;;;17.00;99.90;;;;;;5072869;28;20179;-70
2023/09/11 07:50:11;;;;;;;4.73;2.17;;;16.90;99.90;;;;;;5072852;28;20168;-70
2023/09/11 07:52:39;;;;;;;2.70;2.20;;;16.80;99.90;;;;;;5072450;28;20237;-69
2023/09/11 07:55:07;;;;;;;3.53;2.20;;;16.70;99.90;;;;;;5072678;28;20174;-70
2023/09/11 07:57:40;;;;;;;8.20;2.40;;;16.60;99.90;;;;;;5072271;28;20176;-69
2023/09/11 08:00:08;;;;;;;6.17;2.47;;;16.50;99.90;;;;;;5072732;28;20175;-70
2023/09/11 08:02:37;;;;;;;7.97;2.60;;;16.40;99.90;;;;;;5072364;28;20199;-70
2023/09/11 08:05:05;;;;;;;4.17;2.30;;;16.40;99.90;;;;;;5072370;28;20164;-69
2023/09/11 08:07:33;;;;;;;4.40;2.20;;;16.40;99.90;;;;;;5072460;28;20176;-70
2023/09/11 08:10:01;;;;;;;6.70;2.60;;;16.30;99.90;;;;;;5072329;28;20541;-71
2023/09/11 08:12:29;;;;;;;7.13;2.60;;;16.20;99.90;;;;;;5072409;28;20222;-70
2023/09/11 08:14:57;;;;;;;6.63;2.13;;;16.20;99.90;;;;;;5072520;28;20203;-71
2023/09/11 08:17:27;;;;;;;6.30;2.20;;;16.10;99.90;;;;;;5072585;28;20183;-70
2023/09/11 08:19:55;;;;;;;7.63;2.30;;;16.00;99.90;;;;;;5072463;28;20172;-71
2023/09/11 08:22:23;;;;;;;3.83;2.30;;;15.90;99.90;;;;;;5070991;28;20239;-69
2023/09/11 08:24:51;;;;;;;4.90;2.60;;;15.80;99.90;;;;;;5072477;28;20176;-69
2023/09/11 08:27:20;;;;;;;5.97;2.93;;;15.80;99.90;;;;;;5071072;28;20179;-69
2023/09/11 08:29:48;;;;;;;7.00;2.53;;;15.80;99.90;;;;;;5072021;28;20258;-69
2023/09/11 08:32:16;;;;;;;6.33;2.50;;;15.80;99.90;;;;;;5072378;28;20259;-70
2023/09/11 08:34:43;;;;;;;5.07;2.10;;;15.70;99.90;;;;;;5072349;28;20183;-68
2023/09/11 08:37:11;;;;;;;6.63;2.10;;;15.60;99.90;;;;;;5070466;28;20187;-68
2023/09/11 08:39:39;;;;;;;5.30;2.40;;;15.60;99.90;;;;;;5072351;28;20184;-69
2023/09/11 08:42:09;;;;;;;6.40;2.50;;;15.60;99.90;;;;;;5071756;28;20233;-69
2023/09/11 08:44:36;;;;;;;8.00;2.70;;;15.50;99.90;;;;;;5071090;28;20546;-69
2023/09/11 08:47:05;;;;;;;4.80;2.50;;;15.50;99.90;;;;;;5072108;28;20184;-70
2023/09/11 08:49:42;;;;;;;7.40;3.10;;;15.40;99.90;;;;;;5072073;28;20184;-70
2023/09/11 08:52:14;;;;;;;6.40;2.27;;;15.30;99.90;;;;;;5072159;28;20175;-70
2023/09/11 08:54:45;;;;;;;6.53;2.40;;;15.30;99.90;;;;;;5072223;28;20678;-70
2023/09/11 08:57:15;;;;;;;5.40;2.23;;;15.30;99.90;;;;;;5071902;28;20634;-70
2023/09/11 08:59:47;;;;;;;7.33;3.37;;;15.20;99.90;;;;;;5072297;28;20176;-70
2023/09/11 09:02:17;;;;;;;7.93;2.50;;;15.10;99.90;;;;;;5071908;28;20748;-70
2023/09/11 09:04:46;;;;;;;4.70;2.53;;;15.00;99.90;;;;;;5071946;28;20183;-70
2023/09/11 09:07:15;;;;;;;4.63;2.47;;;14.90;99.90;;;;;;5071961;28;20556;-70
2023/09/11 09:09:44;;;;;;;7.80;2.90;;;14.90;99.90;;;;;;5075396;28;20170;-70
2023/09/11 09:15:40;;;;;;;4.97;2.63;;;14.80;99.90;;;;;;5074742;28;20206;-70
2023/09/11 09:18:08;;;;;;;5.20;2.83;;;14.80;99.90;;;;;;5075648;28;20183;-70
2023/09/11 09:20:38;;;;;;;7.37;3.43;;;14.70;99.90;;;;;;5075120;28;20176;-70
2023/09/11 09:23:06;;;;;;;6.30;2.73;;;14.70;99.90;;;;;;5075638;28;20180;-70
2023/09/11 09:25:34;;;;;;;9.17;3.57;;;14.60;99.90;;;;;;5075581;28;20180;-70
2023/09/11 09:31:25;;;;;;;4.90;2.77;;;14.50;99.90;;;;;;5074833;28;20217;-71
2023/09/11 09:33:59;;;;;;;8.17;2.80;;;14.40;99.90;;;;;;5075458;28;20184;-71
2023/09/11 09:36:27;;;;;;;6.17;2.67;;;14.50;99.90;;;;;;5075263;28;20182;-70
2023/09/11 09:38:54;;;;;;;6.90;3.33;;;14.40;99.90;;;;;;5074864;28;20580;-70
2023/09/11 09:41:23;;;;;;;5.03;3.43;;;14.40;99.90;;;;;;5075248;28;20527;-69
2023/09/11 09:43:58;;;;;;;4.87;3.07;;;14.40;99.90;;;;;;5075299;28;20259;-70
2023/09/11 09:46:26;;;;;;;7.83;3.60;;;14.30;99.90;;;;;;5075063;28;20640;-70
2023/09/11 09:48:53;;;;;;;6.93;3.47;;;14.20;99.90;;;;;;5092335;28;20190;-70
2023/09/11 09:51:21;;;;;;;11.07;3.57;;;14.10;99.90;;;;;;5095000;28;20659;-69
2023/09/11 09:53:54;;;;;;;7.40;4.40;;;14.00;99.90;;;;;;5095836;28;20183;-70
2023/09/11 09:56:27;;;;;;;6.67;4.17;;;14.00;99.90;;;;;;5100387;28;20666;-69
2023/09/11 09:58:56;;;;;;;9.13;4.70;;;13.90;99.90;;;;;;5101107;28;20162;-70
2023/09/11 10:01:24;;;;;;;9.93;4.90;;;13.90;99.90;;;;;;5101188;28;20220;-70
2023/09/11 10:03:53;;;;;;;12.20;5.97;;;13.90;99.90;;;;;;5096324;28;20178;-70
2023/09/11 10:06:26;;;;;;;9.83;5.30;;;13.90;99.90;;;;;;5095855;28;20639;-69
2023/09/11 10:09:10;;;;;;;9.00;4.47;;;13.90;99.90;;;;;;5094851;28;20254;-69
2023/09/11 10:11:44;;;;;;;8.47;4.70;;;13.90;99.90;;;;;;5094809;28;20231;-69
2023/09/11 10:14:12;;;;;;;7.77;5.23;;;13.90;99.90;;;;;;5095073;28;20171;-69
2023/09/11 10:16:45;;;;;;;7.53;4.80;;;13.90;99.90;;;;;;5094958;28;20710;-69
2023/09/11 10:19:15;;;;;;;8.43;4.57;;;13.70;99.90;;;;;;5095137;28;20206;-69
2023/09/11 10:21:43;;;;;;;6.87;3.87;;;13.70;99.90;;;;;;5094065;28;20831;-69
2023/09/11 10:24:13;;;;;;;9.20;4.13;;;13.60;99.90;;;;;;5094685;28;20236;-71
2023/09/11 10:26:59;;;;;;;6.97;4.30;;;13.50;99.90;;;;;;5094884;28;20171;-70
2023/09/11 10:30:02;;;;;;;8.03;4.63;;;13.40;99.90;;;;;;5094516;28;20175;-70
2023/09/11 10:32:47;;;;;;;54.77;15.63;;;13.30;99.90;;;;;;5048972;28;20271;-69
2023/09/11 10:35:16;;;;;;;132.23;30.60;;;13.30;99.90;;;;;;5093356;28;20205;-70
2023/09/11 10:37:51;;;;;;;122.43;28.83;;;13.40;99.90;;;;;;5094473;28;20193;-70
2023/09/11 10:40:19;;;;;;;115.27;27.47;;;13.40;99.90;;;;;;5094443;28;20220;-69
2023/09/11 10:42:48;;;;;;;93.43;25.37;;;13.30;99.90;;;;;;5094385;28;20213;-70
2023/09/11 10:45:42;;;;;;;86.80;23.00;;;13.20;99.90;;;;;;5094415;28;20234;-70
2023/09/11 10:48:27;;;;;;;71.30;19.90;;;13.10;99.90;;;;;;5090025;28;20715;-70
2023/09/11 10:50:59;;;;;;;48.73;15.80;;;13.00;99.90;;;;;;5094201;28;20172;-70
2023/09/11 10:53:29;;;;;;;31.90;12.53;;;12.90;99.90;;;;;;5094127;28;20171;-70
2023/09/11 10:56:00;;;;;;;24.53;10.60;;;13.00;99.90;;;;;;5094329;28;20504;-71
2023/09/11 10:58:30;;;;;;;24.50;10.03;;;13.10;99.90;;;;;;5094425;28;20178;-70
2023/09/11 11:00:58;;;;;;;20.13;9.03;;;13.00;99.90;;;;;;5091946;28;20201;-69
2023/09/11 11:03:30;;;;;;;16.17;9.03;;;13.00;99.90;;;;;;5084086;28;20186;-70
2023/09/11 11:06:02;;;;;;;17.37;8.77;;;13.00;99.90;;;;;;5086246;28;20213;-70
2023/09/11 11:08:36;;;;;;;24.03;11.77;;;13.00;99.90;;;;;;5093993;28;20198;-70
2023/09/11 11:11:04;;;;;;;24.57;15.20;;;13.00;99.90;;;;;;5093798;28;20181;-69
2023/09/11 11:13:33;;;;;;;30.53;18.23;;;12.90;99.90;;;;;;5093699;28;20216;-70
2023/09/11 11:16:18;;;;;;;32.87;19.50;;;12.90;99.90;;;;;;5090702;28;20191;-69
2023/09/11 11:18:46;;;;;;;29.00;18.93;;;12.80;99.90;;;;;;5077770;28;20642;-69
2023/09/11 11:21:16;;;;;;;35.40;23.10;;;12.80;99.90;;;;;;5090352;28;20249;-69
2023/09/11 11:23:55;;;;;;;36.47;24.43;;;12.70;99.90;;;;;;5093808;28;20204;-70
2023/09/11 11:26:27;;;;;;;43.53;26.93;;;12.60;99.90;;;;;;5093498;28;20178;-69
2023/09/11 11:28:56;;;;;;;40.07;27.67;;;12.60;99.90;;;;;;5093752;28;20264;-70
2023/09/11 11:31:25;;;;;;;44.00;30.17;;;12.50;99.90;;;;;;5092560;28;20204;-70
2023/09/11 11:33:57;;;;;;;40.70;28.17;;;12.50;99.90;;;;;;5093579;28;20202;-70
2023/09/11 11:36:27;;;;;;;50.87;33.57;;;12.40;99.90;;;;;;5078797;28;20205;-71
2023/09/11 11:38:56;;;;;;;55.97;37.97;;;12.40;99.90;;;;;;5072530;28;20244;-68
2023/09/11 11:41:24;;;;;;;59.40;37.00;;;12.40;99.90;;;;;;5072162;28;20284;-70
2023/09/11 11:43:53;;;;;;;50.40;33.83;;;12.30;99.90;;;;;;5072931;28;20232;-68
2023/09/11 11:46:25;;;;;;;53.63;37.47;;;12.20;99.90;;;;;;5072454;28;20187;-69
2023/09/11 11:48:53;;;;;;;53.10;35.47;;;12.20;99.90;;;;;;5071203;28;20234;-68
2023/09/11 11:51:33;;;;;;;54.80;37.10;;;12.10;99.90;;;;;;5071929;28;20184;-70
2023/09/11 11:54:04;;;;;;;51.83;37.43;;;12.00;99.90;;;;;;5063897;28;20641;-69
2023/09/11 11:56:32;;;;;;;59.20;37.87;;;12.00;99.90;;;;;;5053184;28;20230;-70
2023/09/11 11:58:59;;;;;;;69.63;46.27;;;12.00;99.90;;;;;;5052735;28;20205;-69
2023/09/11 12:01:35;;;;;;;74.87;50.67;;;12.00;99.90;;;;;;5067981;28;20218;-70
2023/09/11 12:04:04;;;;;;;87.40;61.40;;;11.90;99.90;;;;;;5071834;28;20716;-69
2023/09/11 12:06:32;;;;;;;99.17;65.23;;;11.90;99.90;;;;;;5072288;28;20611;-70
2023/09/11 12:09:00;;;;;;;108.70;73.20;;;11.90;99.90;;;;;;5072049;28;20192;-70
2023/09/11 12:11:28;;;;;;;103.37;73.83;;;11.90;99.90;;;;;;5072115;28;20236;-69
2023/09/11 12:13:57;;;;;;;119.73;82.13;;;11.90;99.90;;;;;;5072418;28;20194;-69
2023/09/11 12:16:31;;;;;;;114.60;80.07;;;11.80;99.90;;;;;;5072100;28;20209;-70
2023/09/11 12:18:59;;;;;;;139.77;93.47;;;11.80;99.90;;;;;;5072496;28;20215;-70
2023/09/11 12:21:30;;;;;;;137.87;96.10;;;11.80;99.90;;;;;;5071740;28;20232;-68
2023/09/11 12:24:00;;;;;;;137.27;96.33;;;11.70;99.90;;;;;;5067603;28;20558;-69
2023/09/11 12:26:31;;;;;;;136.10;96.47;;;11.70;99.90;;;;;;5070706;28;20185;-69
2023/09/11 12:28:59;;;;;;;138.07;94.80;;;11.70;99.90;;;;;;5071958;28;20189;-70
2023/09/11 12:31:29;;;;;;;132.80;92.93;;;11.70;99.90;;;;;;5071726;28;20650;-68
2023/09/11 12:34:00;;;;;;;135.33;91.67;;;11.60;99.90;;;;;;5070861;28;20532;-69
2023/09/11 12:36:30;;;;;;;135.37;93.80;;;11.60;99.90;;;;;;5072015;28;20187;-69
2023/09/11 12:38:58;;;;;;;131.93;91.97;;;11.50;99.90;;;;;;5070697;28;20530;-69
2023/09/11 12:41:27;;;;;;;137.20;88.97;;;11.50;99.90;;;;;;5072036;28;20206;-68
2023/09/11 12:43:54;;;;;;;125.07;83.17;;;11.50;99.90;;;;;;5074821;28;20596;-69
2023/09/11 12:46:25;;;;;;;106.93;76.10;;;11.50;99.90;;;;;;5075127;28;20189;-69
2023/09/11 12:48:53;;;;;;;117.27;80.13;;;11.50;99.90;;;;;;5074126;28;20219;-69
2023/09/11 12:51:21;;;;;;;114.47;78.27;;;11.50;99.90;;;;;;5074481;28;20667;-69
2023/09/11 12:53:50;;;;;;;113.80;79.20;;;11.50;99.90;;;;;;5075754;28;20187;-69
2023/09/11 12:56:22;;;;;;;118.40;73.87;;;11.40;99.90;;;;;;5074526;28;20179;-68
2023/09/11 12:58:50;;;;;;;100.80;67.93;;;11.50;99.90;;;;;;5074646;28;20197;-70
2023/09/11 13:01:18;;;;;;;100.93;69.50;;;11.50;99.90;;;;;;5075413;28;20347;-68
2023/09/11 13:03:59;;;;;;;101.23;70.87;;;11.50;99.90;;;;;;5073203;28;20189;-68
2023/09/11 13:06:29;;;;;;;97.73;66.40;;;11.60;99.90;;;;;;5074527;28;20190;-68
2023/09/11 13:08:57;;;;;;;96.20;67.27;;;11.60;99.90;;;;;;5074037;28;20195;-68
2023/09/11 13:11:26;;;;;;;90.20;64.00;;;11.60;99.90;;;;;;5075678;28;20182;-69
2023/09/11 13:13:53;;;;;;;87.70;61.40;;;11.70;99.90;;;;;;5075376;28;20240;-69
2023/09/11 13:16:24;;;;;;;87.57;58.70;;;11.70;99.90;;;;;;5074433;28;20637;-69